sensor_id;sensor_type;location;lat;lon;timestamp;pressure;altitude;pressure_sealevel;temperature;humidity
13767;BME280;47980;48.794;9.176;2023-05-29T00:01:39;98254.16;;;17.09;56.12
13767;BME280;47980;48.794;9.176;2023-05-29T00:04:11;98253.25;;;16.98;56.41
13767;BME280;47980;48.794;9.176;2023-05-29T00:06:42;98251.28;;;16.95;57.19
13767;BME280;47980;48.794;9.176;2023-05-29T00:09:14;98259.25;;;16.88;56.47
13767;BME280;47980;48.794;9.176;2023-05-29T00:11:45;98246.59;;;16.85;56.83
13767;BME280;47980;48.794;9.176;2023-05-29T00:14:21;98258.31;;;16.77;58.18
13767;BME280;47980;48.794;9.176;2023-05-29T00:16:55;98256.97;;;16.64;59.00
13767;BME280;47980;48.794;9.176;2023-05-29T00:19:27;98249.44;;;16.73;56.40
13767;BME280;47980;48.794;9.176;2023-05-29T00:21:58;98253.88;;;16.88;55.56
13767;BME280;47980;48.794;9.176;2023-05-29T00:24:30;98244.06;;;16.96;55.19
13767;BME280;47980;48.794;9.176;2023-05-29T00:27:02;98241.09;;;17.04;54.83
13767;BME280;47980;48.794;9.176;2023-05-29T00:29:33;98241.44;;;17.03;54.96
13767;BME280;47980;48.794;9.176;2023-05-29T00:32:07;98238.03;;;17.06;54.80
13767;BME280;47980;48.794;9.176;2023-05-29T00:34:38;98241.84;;;17.05;55.04
13767;BME280;47980;48.794;9.176;2023-05-29T00:37:10;98235.97;;;16.92;55.65
13767;BME280;47980;48.794;9.176;2023-05-29T00:39:41;98233.19;;;16.85;56.23
13767;BME280;47980;48.794;9.176;2023-05-29T00:42:13;98229.28;;;16.79;56.11
13767;BME280;47980;48.794;9.176;2023-05-29T00:44:44;98229.91;;;16.72;55.85
13767;BME280;47980;48.794;9.176;2023-05-29T00:47:18;98232.53;;;16.69;56.52
13767;BME280;47980;48.794;9.176;2023-05-29T00:49:50;98230.63;;;16.69;56.37
13767;BME280;47980;48.794;9.176;2023-05-29T00:52:21;98226.03;;;16.70;56.25
13767;BME280;47980;48.794;9.176;2023-05-29T00:54:54;98225.22;;;16.66;56.48
13767;BME280;47980;48.794;9.176;2023-05-29T00:57:26;98221.31;;;16.59;57.31
13767;BME280;47980;48.794;9.176;2023-05-29T00:59:58;98226.16;;;16.50;57.03
13767;BME280;47980;48.794;9.176;2023-05-29T01:02:32;98224.28;;;16.54;56.76
13767;BME280;47980;48.794;9.176;2023-05-29T01:05:04;98225.13;;;16.58;56.56
13767;BME280;47980;48.794;9.176;2023-05-29T01:07:35;98226.25;;;16.57;57.24
13767;BME280;47980;48.794;9.176;2023-05-29T01:10:08;98217.59;;;16.41;58.04
13767;BME280;47980;48.794;9.176;2023-05-29T01:12:45;98229.66;;;16.28;58.86
13767;BME280;47980;48.794;9.176;2023-05-29T01:15:29;98230.06;;;16.07;60.19
13767;BME280;47980;48.794;9.176;2023-05-29T01:18:11;98223.81;;;15.99;60.91
13767;BME280;47980;48.794;9.176;2023-05-29T01:20:48;98224.84;;;15.91;61.63
13767;BME280;47980;48.794;9.176;2023-05-29T01:23:39;98224.19;;;15.98;60.01
13767;BME280;47980;48.794;9.176;2023-05-29T01:26:21;98222.41;;;16.05;59.87
13767;BME280;47980;48.794;9.176;2023-05-29T01:29:00;98217.75;;;16.02;59.76
13767;BME280;47980;48.794;9.176;2023-05-29T01:31:32;98216.50;;;15.96;59.77
13767;BME280;47980;48.794;9.176;2023-05-29T01:34:05;98219.31;;;15.80;61.11
13767;BME280;47980;48.794;9.176;2023-05-29T01:36:37;98215.75;;;15.73;61.61
13767;BME280;47980;48.794;9.176;2023-05-29T01:39:09;98217.41;;;15.61;62.74
13767;BME280;47980;48.794;9.176;2023-05-29T01:41:41;98221.91;;;15.57;63.26
13767;BME280;47980;48.794;9.176;2023-05-29T01:44:16;98225.00;;;15.59;62.96
13767;BME280;47980;48.794;9.176;2023-05-29T01:46:49;98231.34;;;15.51;63.64
13767;BME280;47980;48.794;9.176;2023-05-29T01:49:23;98233.13;;;15.44;65.02
13767;BME280;47980;48.794;9.176;2023-05-29T01:51:55;98238.03;;;15.41;63.91
13767;BME280;47980;48.794;9.176;2023-05-29T01:54:27;98229.81;;;15.31;65.00
13767;BME280;47980;48.794;9.176;2023-05-29T01:56:59;98238.91;;;15.26;66.05
13767;BME280;47980;48.794;9.176;2023-05-29T01:59:32;98240.66;;;15.38;63.95
13767;BME280;47980;48.794;9.176;2023-05-29T02:02:06;98242.78;;;15.29;nan
13767;BME280;47980;48.794;9.176;2023-05-29T02:04:37;98249.03;;;15.36;64.79
13767;BME280;47980;48.794;9.176;2023-05-29T02:07:09;98247.25;;;15.25;65.89
13767;BME280;47980;48.794;9.176;2023-05-29T02:09:42;98241.91;;;15.25;62.94
13767;BME280;47980;48.794;9.176;2023-05-29T02:12:13;98238.69;;;15.35;63.32
13767;BME280;47980;48.794;9.176;2023-05-29T02:14:46;98240.44;;;15.27;64.86
13767;BME280;47980;48.794;9.176;2023-05-29T02:17:18;98232.63;;;15.19;64.05
13767;BME280;47980;48.794;9.176;2023-05-29T02:19:50;98239.38;;;15.12;65.45
13767;BME280;47980;48.794;9.176;2023-05-29T02:22:21;98232.59;;;14.99;65.74
13767;BME280;47980;48.794;9.176;2023-05-29T02:24:53;98236.47;;;15.02;66.34
13767;BME280;47980;48.794;9.176;2023-05-29T02:27:24;98230.66;;;14.96;66.95
13767;BME280;47980;48.794;9.176;2023-05-29T02:29:57;98222.06;;;14.87;66.99
13767;BME280;47980;48.794;9.176;2023-05-29T02:32:29;98229.84;;;14.96;67.37
13767;BME280;47980;48.794;9.176;2023-05-29T02:35:00;98228.00;;;14.96;68.59
13767;BME280;47980;48.794;9.176;2023-05-29T02:37:32;98231.53;;;14.84;68.33
13767;BME280;47980;48.794;9.176;2023-05-29T02:40:04;98237.06;;;14.76;68.12
13767;BME280;47980;48.794;9.176;2023-05-29T02:42:36;98232.06;;;14.74;68.40
13767;BME280;47980;48.794;9.176;2023-05-29T02:45:12;98235.94;;;14.77;68.04
13767;BME280;47980;48.794;9.176;2023-05-29T02:47:43;98229.16;;;14.79;66.59
13767;BME280;47980;48.794;9.176;2023-05-29T02:50:15;98227.31;;;14.83;66.98
13767;BME280;47980;48.794;9.176;2023-05-29T02:52:46;98228.22;;;14.56;68.76
13767;BME280;47980;48.794;9.176;2023-05-29T02:55:18;98224.19;;;14.46;69.88
13767;BME280;47980;48.794;9.176;2023-05-29T02:57:49;98224.72;;;14.36;71.00
13767;BME280;47980;48.794;9.176;2023-05-29T03:00:24;98226.63;;;14.35;69.39
13767;BME280;47980;48.794;9.176;2023-05-29T03:02:56;98220.41;;;14.31;70.77
13767;BME280;47980;48.794;9.176;2023-05-29T03:05:27;98219.19;;;14.44;70.04
13767;BME280;47980;48.794;9.176;2023-05-29T03:07:59;98220.03;;;14.49;68.44
13767;BME280;47980;48.794;9.176;2023-05-29T03:10:30;98215.31;;;14.58;68.84
13767;BME280;47980;48.794;9.176;2023-05-29T03:13:02;98223.25;;;14.54;67.20
13767;BME280;47980;48.794;9.176;2023-05-29T03:15:35;98225.47;;;14.52;67.61
13767;BME280;47980;48.794;9.176;2023-05-29T03:18:06;98224.88;;;14.59;68.95
13767;BME280;47980;48.794;9.176;2023-05-29T03:20:38;98231.75;;;14.44;70.19
13767;BME280;47980;48.794;9.176;2023-05-29T03:23:09;98226.78;;;14.42;68.79
13767;BME280;47980;48.794;9.176;2023-05-29T03:25:41;98222.22;;;14.43;70.18
13767;BME280;47980;48.794;9.176;2023-05-29T03:28:12;98222.81;;;14.36;69.68
13767;BME280;47980;48.794;9.176;2023-05-29T03:30:45;98226.94;;;14.34;70.45
13767;BME280;47980;48.794;9.176;2023-05-29T03:33:17;98235.06;;;14.21;70.99
13767;BME280;47980;48.794;9.176;2023-05-29T03:35:48;98236.69;;;14.26;70.47
13767;BME280;47980;48.794;9.176;2023-05-29T03:38:20;98230.81;;;14.36;70.45
13767;BME280;47980;48.794;9.176;2023-05-29T03:40:51;98231.41;;;14.30;71.16
13767;BME280;47980;48.794;9.176;2023-05-29T03:43:23;98226.53;;;14.32;71.50
13767;BME280;47980;48.794;9.176;2023-05-29T03:45:55;98226.78;;;14.42;71.45
13767;BME280;47980;48.794;9.176;2023-05-29T03:48:27;98224.00;;;14.71;71.27
13767;BME280;47980;48.794;9.176;2023-05-29T03:50:58;98227.47;;;15.10;69.26
13767;BME280;47980;48.794;9.176;2023-05-29T03:53:30;98227.84;;;15.47;66.45
13767;BME280;47980;48.794;9.176;2023-05-29T03:56:01;98234.94;;;15.78;65.71
13767;BME280;47980;48.794;9.176;2023-05-29T03:58:33;98236.31;;;16.15;65.66
13767;BME280;47980;48.794;9.176;2023-05-29T04:01:07;98241.50;;;16.53;63.97
13767;BME280;47980;48.794;9.176;2023-05-29T04:03:39;98246.66;;;16.66;62.40
13767;BME280;47980;48.794;9.176;2023-05-29T04:06:11;98246.50;;;16.78;61.08
13767;BME280;47980;48.794;9.176;2023-05-29T04:08:43;98246.03;;;17.02;60.96
13767;BME280;47980;48.794;9.176;2023-05-29T04:11:14;98250.88;;;17.87;58.72
13767;BME280;47980;48.794;9.176;2023-05-29T04:13:46;98257.63;;;18.15;57.98
13767;BME280;47980;48.794;9.176;2023-05-29T04:16:19;98260.47;;;18.33;57.65
13767;BME280;47980;48.794;9.176;2023-05-29T04:18:50;98263.81;;;18.22;58.23
13767;BME280;47980;48.794;9.176;2023-05-29T04:21:22;98261.44;;;18.62;56.44
13767;BME280;47980;48.794;9.176;2023-05-29T04:23:54;98270.06;;;18.82;55.43
13767;BME280;47980;48.794;9.176;2023-05-29T04:26:25;98277.81;;;18.97;55.80
13767;BME280;47980;48.794;9.176;2023-05-29T04:28:57;98269.78;;;19.01;54.45
13767;BME280;47980;48.794;9.176;2023-05-29T04:31:30;98280.34;;;18.72;54.73
13767;BME280;47980;48.794;9.176;2023-05-29T04:34:01;98280.91;;;18.48;56.08
13767;BME280;47980;48.794;9.176;2023-05-29T04:36:35;98284.34;;;18.00;56.69
13767;BME280;47980;48.794;9.176;2023-05-29T04:39:09;98280.53;;;17.34;57.95
13767;BME280;47980;48.794;9.176;2023-05-29T04:41:40;98286.44;;;18.18;56.40
13767;BME280;47980;48.794;9.176;2023-05-29T04:44:12;98283.66;;;18.11;56.38
13767;BME280;47980;48.794;9.176;2023-05-29T04:46:44;98292.13;;;17.75;57.80
13767;BME280;47980;48.794;9.176;2023-05-29T04:49:17;98294.31;;;17.66;56.97
13767;BME280;47980;48.794;9.176;2023-05-29T04:51:49;98298.94;;;18.03;56.90
13767;BME280;47980;48.794;9.176;2023-05-29T04:54:22;98295.84;;;18.01;56.17
13767;BME280;47980;48.794;9.176;2023-05-29T04:56:54;98297.00;;;18.00;55.76
13767;BME280;47980;48.794;9.176;2023-05-29T04:59:25;98292.28;;;17.90;55.92
13767;BME280;47980;48.794;9.176;2023-05-29T05:01:58;98296.56;;;17.94;56.50
13767;BME280;47980;48.794;9.176;2023-05-29T05:04:30;98296.91;;;18.30;55.80
13767;BME280;47980;48.794;9.176;2023-05-29T05:07:02;98300.94;;;18.58;54.35
13767;BME280;47980;48.794;9.176;2023-05-29T05:09:34;98299.63;;;18.37;55.21
13767;BME280;47980;48.794;9.176;2023-05-29T05:12:05;98308.41;;;18.31;55.50
13767;BME280;47980;48.794;9.176;2023-05-29T05:14:37;98300.66;;;18.22;55.95
13767;BME280;47980;48.794;9.176;2023-05-29T05:17:10;98308.06;;;18.36;54.50
13767;BME280;47980;48.794;9.176;2023-05-29T05:19:41;98303.66;;;18.61;54.55
13767;BME280;47980;48.794;9.176;2023-05-29T05:22:13;98306.97;;;18.88;54.02
13767;BME280;47980;48.794;9.176;2023-05-29T05:24:44;98306.19;;;18.91;53.84
13767;BME280;47980;48.794;9.176;2023-05-29T05:27:16;98315.22;;;19.24;52.48
13767;BME280;47980;48.794;9.176;2023-05-29T05:29:47;98309.78;;;18.14;54.91
13767;BME280;47980;48.794;9.176;2023-05-29T05:32:20;98319.44;;;18.63;53.31
13767;BME280;47980;48.794;9.176;2023-05-29T05:34:52;98310.13;;;19.05;53.17
13767;BME280;47980;48.794;9.176;2023-05-29T05:37:23;98317.19;;;19.31;51.59
13767;BME280;47980;48.794;9.176;2023-05-29T05:39:54;98315.75;;;19.47;52.17
13767;BME280;47980;48.794;9.176;2023-05-29T05:42:28;98308.69;;;18.66;54.01
13767;BME280;47980;48.794;9.176;2023-05-29T05:44:59;98317.06;;;19.09;53.90
13767;BME280;47980;48.794;9.176;2023-05-29T05:47:33;98310.81;;;18.91;53.19
13767;BME280;47980;48.794;9.176;2023-05-29T05:50:05;98317.28;;;18.83;53.31
13767;BME280;47980;48.794;9.176;2023-05-29T05:52:38;98315.19;;;19.17;53.38
13767;BME280;47980;48.794;9.176;2023-05-29T05:55:09;98321.50;;;19.49;51.47
13767;BME280;47980;48.794;9.176;2023-05-29T05:57:41;98328.84;;;19.56;52.09
13767;BME280;47980;48.794;9.176;2023-05-29T06:00:13;98327.38;;;19.69;52.37
13767;BME280;47980;48.794;9.176;2023-05-29T06:02:46;98331.38;;;19.24;51.07
13767;BME280;47980;48.794;9.176;2023-05-29T06:05:18;98337.97;;;19.34;51.96
13767;BME280;47980;48.794;9.176;2023-05-29T06:07:49;98338.84;;;18.90;52.69
13767;BME280;47980;48.794;9.176;2023-05-29T06:10:21;98341.91;;;18.85;52.96
13767;BME280;47980;48.794;9.176;2023-05-29T06:12:52;98339.34;;;19.10;52.58
13767;BME280;47980;48.794;9.176;2023-05-29T06:15:24;98340.53;;;19.12;53.51
13767;BME280;47980;48.794;9.176;2023-05-29T06:17:57;98350.97;;;19.21;52.38
13767;BME280;47980;48.794;9.176;2023-05-29T06:20:28;98346.06;;;19.41;53.14
13767;BME280;47980;48.794;9.176;2023-05-29T06:23:00;98349.66;;;19.63;51.51
13767;BME280;47980;48.794;9.176;2023-05-29T06:25:32;98350.53;;;19.88;53.58
13767;BME280;47980;48.794;9.176;2023-05-29T06:28:04;98357.03;;;19.77;51.67
13767;BME280;47980;48.794;9.176;2023-05-29T06:30:36;98357.13;;;19.25;52.12
13767;BME280;47980;48.794;9.176;2023-05-29T06:33:09;98364.88;;;19.37;52.69
13767;BME280;47980;48.794;9.176;2023-05-29T06:35:41;98363.97;;;19.88;51.26
13767;BME280;47980;48.794;9.176;2023-05-29T06:38:13;98360.34;;;19.52;52.20
13767;BME280;47980;48.794;9.176;2023-05-29T06:40:44;98363.47;;;19.61;52.83
13767;BME280;47980;48.794;9.176;2023-05-29T06:43:16;98368.41;;;19.48;52.90
13767;BME280;47980;48.794;9.176;2023-05-29T06:45:47;98376.47;;;19.48;52.89
13767;BME280;47980;48.794;9.176;2023-05-29T06:48:20;98371.88;;;19.53;53.58
13767;BME280;47980;48.794;9.176;2023-05-29T06:50:52;98375.56;;;20.00;52.24
13767;BME280;47980;48.794;9.176;2023-05-29T06:53:23;98378.53;;;19.66;53.29
13767;BME280;47980;48.794;9.176;2023-05-29T06:55:55;98377.97;;;20.26;52.63
13767;BME280;47980;48.794;9.176;2023-05-29T06:58:26;98374.19;;;20.66;51.35
13767;BME280;47980;48.794;9.176;2023-05-29T07:00:58;98383.34;;;20.44;51.63
13767;BME280;47980;48.794;9.176;2023-05-29T07:03:31;98381.09;;;20.53;51.28
13767;BME280;47980;48.794;9.176;2023-05-29T07:06:04;98384.88;;;20.31;51.91
13767;BME280;47980;48.794;9.176;2023-05-29T07:08:36;98394.47;;;20.14;52.38
13767;BME280;47980;48.794;9.176;2023-05-29T07:11:07;98400.69;;;20.47;52.61
13767;BME280;47980;48.794;9.176;2023-05-29T07:13:39;98400.97;;;20.06;52.28
13767;BME280;47980;48.794;9.176;2023-05-29T07:16:11;98395.72;;;20.95;52.11
13767;BME280;47980;48.794;9.176;2023-05-29T07:18:44;98391.88;;;21.10;50.75
13767;BME280;47980;48.794;9.176;2023-05-29T07:21:17;98388.78;;;20.62;49.98
13767;BME280;47980;48.794;9.176;2023-05-29T07:23:48;98393.84;;;20.85;49.73
13767;BME280;47980;48.794;9.176;2023-05-29T07:26:20;98391.88;;;21.18;49.43
13767;BME280;47980;48.794;9.176;2023-05-29T07:28:53;98397.66;;;20.80;48.47
13767;BME280;47980;48.794;9.176;2023-05-29T07:31:24;98391.50;;;20.98;48.00
13767;BME280;47980;48.794;9.176;2023-05-29T07:33:57;98397.59;;;21.55;46.67
13767;BME280;47980;48.794;9.176;2023-05-29T07:36:30;98400.34;;;20.98;47.97
13767;BME280;47980;48.794;9.176;2023-05-29T07:39:01;98397.28;;;21.14;47.62
13767;BME280;47980;48.794;9.176;2023-05-29T07:41:35;98398.41;;;21.38;47.32
13767;BME280;47980;48.794;9.176;2023-05-29T07:44:07;98401.47;;;21.54;47.23
13767;BME280;47980;48.794;9.176;2023-05-29T07:46:38;98394.84;;;21.77;46.17
13767;BME280;47980;48.794;9.176;2023-05-29T07:49:11;98397.16;;;21.75;47.20
13767;BME280;47980;48.794;9.176;2023-05-29T07:51:43;98399.53;;;21.51;49.18
13767;BME280;47980;48.794;9.176;2023-05-29T07:54:14;98384.00;;;21.84;47.55
13767;BME280;47980;48.794;9.176;2023-05-29T07:56:48;98394.28;;;22.18;45.69
13767;BME280;47980;48.794;9.176;2023-05-29T07:59:20;98389.41;;;21.80;46.96
13767;BME280;47980;48.794;9.176;2023-05-29T08:01:52;98391.38;;;21.73;46.26
13767;BME280;47980;48.794;9.176;2023-05-29T08:04:28;98387.56;;;22.44;45.75
13767;BME280;47980;48.794;9.176;2023-05-29T08:07:00;98393.28;;;23.05;43.76
13767;BME280;47980;48.794;9.176;2023-05-29T08:09:33;98400.94;;;23.17;45.36
13767;BME280;47980;48.794;9.176;2023-05-29T08:12:05;98388.59;;;22.64;44.85
13767;BME280;47980;48.794;9.176;2023-05-29T08:14:37;98387.66;;;22.26;46.89
13767;BME280;47980;48.794;9.176;2023-05-29T08:17:08;98390.63;;;22.49;46.81
13767;BME280;47980;48.794;9.176;2023-05-29T08:19:41;98390.28;;;22.40;45.99
13767;BME280;47980;48.794;9.176;2023-05-29T08:22:14;98391.78;;;23.04;44.74
13767;BME280;47980;48.794;9.176;2023-05-29T08:24:45;98389.56;;;23.33;44.57
13767;BME280;47980;48.794;9.176;2023-05-29T08:27:18;98386.44;;;23.72;43.92
13767;BME280;47980;48.794;9.176;2023-05-29T08:29:50;98394.75;;;23.89;43.12
13767;BME280;47980;48.794;9.176;2023-05-29T08:32:21;98395.59;;;23.48;43.71
13767;BME280;47980;48.794;9.176;2023-05-29T08:34:54;98398.41;;;22.96;43.72
13767;BME280;47980;48.794;9.176;2023-05-29T08:37:26;98391.94;;;22.79;44.15
13767;BME280;47980;48.794;9.176;2023-05-29T08:39:57;98390.31;;;23.34;44.21
13767;BME280;47980;48.794;9.176;2023-05-29T08:42:32;98394.56;;;22.93;44.97
13767;BME280;47980;48.794;9.176;2023-05-29T08:45:07;98393.34;;;22.98;44.87
13767;BME280;47980;48.794;9.176;2023-05-29T08:47:41;98391.81;;;23.38;45.46
13767;BME280;47980;48.794;9.176;2023-05-29T08:50:15;98390.56;;;23.84;44.96
13767;BME280;47980;48.794;9.176;2023-05-29T08:52:47;98396.81;;;24.12;42.91
13767;BME280;47980;48.794;9.176;2023-05-29T08:55:19;98391.91;;;23.65;44.45
13767;BME280;47980;48.794;9.176;2023-05-29T08:57:51;98387.03;;;23.53;44.80
13767;BME280;47980;48.794;9.176;2023-05-29T09:00:23;98393.47;;;23.28;44.61
13767;BME280;47980;48.794;9.176;2023-05-29T09:02:58;98398.31;;;22.54;46.78
13767;BME280;47980;48.794;9.176;2023-05-29T09:05:32;98403.09;;;22.92;46.14
13767;BME280;47980;48.794;9.176;2023-05-29T09:08:04;98400.19;;;23.13;45.33
13767;BME280;47980;48.794;9.176;2023-05-29T09:10:35;98396.78;;;23.47;45.83
13767;BME280;47980;48.794;9.176;2023-05-29T09:13:07;98395.94;;;23.53;46.07
13767;BME280;47980;48.794;9.176;2023-05-29T09:15:40;98396.09;;;23.73;44.79
13767;BME280;47980;48.794;9.176;2023-05-29T09:18:13;98392.97;;;23.78;44.73
13767;BME280;47980;48.794;9.176;2023-05-29T09:20:46;98395.94;;;24.18;45.02
13767;BME280;47980;48.794;9.176;2023-05-29T09:23:18;98405.78;;;24.05;44.75
13767;BME280;47980;48.794;9.176;2023-05-29T09:25:52;98389.34;;;23.54;45.01
13767;BME280;47980;48.794;9.176;2023-05-29T09:28:24;98395.31;;;24.34;44.31
13767;BME280;47980;48.794;9.176;2023-05-29T09:30:58;98394.38;;;24.48;43.32
13767;BME280;47980;48.794;9.176;2023-05-29T09:33:29;98395.25;;;24.41;42.80
13767;BME280;47980;48.794;9.176;2023-05-29T09:36:02;98395.44;;;24.54;43.62
13767;BME280;47980;48.794;9.176;2023-05-29T09:38:36;98397.53;;;24.70;43.39
13767;BME280;47980;48.794;9.176;2023-05-29T09:41:07;98397.34;;;24.57;42.52
13767;BME280;47980;48.794;9.176;2023-05-29T09:43:39;98401.91;;;24.87;42.54
13767;BME280;47980;48.794;9.176;2023-05-29T09:46:15;98398.19;;;25.01;43.02
13767;BME280;47980;48.794;9.176;2023-05-29T09:48:48;98404.00;;;24.53;42.69
13767;BME280;47980;48.794;9.176;2023-05-29T09:51:23;98392.16;;;24.66;44.10
13767;BME280;47980;48.794;9.176;2023-05-29T09:53:55;98397.91;;;24.95;42.30
13767;BME280;47980;48.794;9.176;2023-05-29T09:56:32;98391.19;;;25.67;42.34
13767;BME280;47980;48.794;9.176;2023-05-29T09:59:04;98387.03;;;25.82;41.64
13767;BME280;47980;48.794;9.176;2023-05-29T10:01:38;98375.31;;;25.65;40.46
13767;BME280;47980;48.794;9.176;2023-05-29T10:04:12;98392.78;;;25.25;41.24
13767;BME280;47980;48.794;9.176;2023-05-29T10:06:46;98381.53;;;25.23;41.73
13767;BME280;47980;48.794;9.176;2023-05-29T10:09:20;98367.63;;;25.40;41.09
13767;BME280;47980;48.794;9.176;2023-05-29T10:11:53;98361.63;;;25.69;39.55
13767;BME280;47980;48.794;9.176;2023-05-29T10:14:29;98358.66;;;25.83;39.79
13767;BME280;47980;48.794;9.176;2023-05-29T10:17:07;98361.22;;;25.90;38.57
13767;BME280;47980;48.794;9.176;2023-05-29T10:19:39;98370.56;;;25.30;37.99
13767;BME280;47980;48.794;9.176;2023-05-29T10:22:18;98368.53;;;25.74;36.26
13767;BME280;47980;48.794;9.176;2023-05-29T10:24:51;98368.13;;;25.35;36.97
13767;BME280;47980;48.794;9.176;2023-05-29T10:27:23;98372.22;;;26.03;36.96
13767;BME280;47980;48.794;9.176;2023-05-29T10:29:59;98359.22;;;25.55;36.74
13767;BME280;47980;48.794;9.176;2023-05-29T10:32:39;98366.72;;;25.27;37.29
13767;BME280;47980;48.794;9.176;2023-05-29T10:35:18;98359.28;;;25.71;37.83
13767;BME280;47980;48.794;9.176;2023-05-29T10:37:56;98352.56;;;25.56;36.60
13767;BME280;47980;48.794;9.176;2023-05-29T10:40:31;98359.41;;;25.01;37.74
13767;BME280;47980;48.794;9.176;2023-05-29T10:43:05;98355.72;;;25.34;38.46
13767;BME280;47980;48.794;9.176;2023-05-29T10:45:50;98360.94;;;25.85;37.96
13767;BME280;47980;48.794;9.176;2023-05-29T10:48:38;98348.63;;;25.80;36.65
13767;BME280;47980;48.794;9.176;2023-05-29T10:51:27;98358.28;;;25.41;38.00
13767;BME280;47980;48.794;9.176;2023-05-29T10:54:00;98362.16;;;25.64;36.85
13767;BME280;47980;48.794;9.176;2023-05-29T10:56:32;98368.13;;;25.35;37.23
13767;BME280;47980;48.794;9.176;2023-05-29T10:59:04;98368.09;;;25.79;37.13
13767;BME280;47980;48.794;9.176;2023-05-29T11:01:38;98357.06;;;25.46;37.95
13767;BME280;47980;48.794;9.176;2023-05-29T11:04:26;98351.56;;;25.89;38.03
13767;BME280;47980;48.794;9.176;2023-05-29T11:06:59;98345.72;;;26.07;36.51
13767;BME280;47980;48.794;9.176;2023-05-29T11:09:32;98354.53;;;25.75;35.75
13767;BME280;47980;48.794;9.176;2023-05-29T11:12:11;98342.00;;;25.81;35.56
13767;BME280;47980;48.794;9.176;2023-05-29T11:14:46;98343.16;;;26.00;36.23
13767;BME280;47980;48.794;9.176;2023-05-29T11:17:45;98338.72;;;26.06;35.49
13767;BME280;47980;48.794;9.176;2023-05-29T11:20:28;98356.81;;;25.77;36.82
13767;BME280;47980;48.794;9.176;2023-05-29T11:23:14;98351.25;;;25.44;37.18
13767;BME280;47980;48.794;9.176;2023-05-29T11:25:50;98349.09;;;25.95;35.57
13767;BME280;47980;48.794;9.176;2023-05-29T11:28:22;98347.44;;;25.81;36.42
13767;BME280;47980;48.794;9.176;2023-05-29T11:30:55;98344.47;;;26.45;35.58
13767;BME280;47980;48.794;9.176;2023-05-29T11:33:30;98350.34;;;26.27;34.88
13767;BME280;47980;48.794;9.176;2023-05-29T11:36:03;98348.53;;;26.04;35.54
13767;BME280;47980;48.794;9.176;2023-05-29T11:38:36;98346.72;;;25.77;35.39
13767;BME280;47980;48.794;9.176;2023-05-29T11:41:10;98349.38;;;26.17;35.89
13767;BME280;47980;48.794;9.176;2023-05-29T11:43:41;98356.84;;;26.66;34.78
13767;BME280;47980;48.794;9.176;2023-05-29T11:46:16;98340.53;;;26.13;34.61
13767;BME280;47980;48.794;9.176;2023-05-29T11:48:48;98347.81;;;26.52;33.32
13767;BME280;47980;48.794;9.176;2023-05-29T11:51:19;98345.78;;;26.56;36.92
13767;BME280;47980;48.794;9.176;2023-05-29T11:53:51;98338.38;;;26.73;33.18
13767;BME280;47980;48.794;9.176;2023-05-29T11:56:29;98348.22;;;26.34;32.48
13767;BME280;47980;48.794;9.176;2023-05-29T11:59:01;98335.13;;;26.29;32.31
13767;BME280;47980;48.794;9.176;2023-05-29T12:01:35;98343.16;;;26.16;33.45
13767;BME280;47980;48.794;9.176;2023-05-29T12:04:14;98342.88;;;25.95;33.67
13767;BME280;47980;48.794;9.176;2023-05-29T12:06:46;98336.81;;;26.39;35.42
13767;BME280;47980;48.794;9.176;2023-05-29T12:09:24;98357.72;;;26.26;32.08
13767;BME280;47980;48.794;9.176;2023-05-29T12:12:03;98356.63;;;26.24;32.91
13767;BME280;47980;48.794;9.176;2023-05-29T12:14:34;98345.50;;;26.51;32.58
13767;BME280;47980;48.794;9.176;2023-05-29T12:17:06;98337.66;;;26.85;32.64
13767;BME280;47980;48.794;9.176;2023-05-29T12:19:38;98351.44;;;26.46;32.90
13767;BME280;47980;48.794;9.176;2023-05-29T12:22:10;98332.34;;;26.66;32.59
13767;BME280;47980;48.794;9.176;2023-05-29T12:24:41;98340.41;;;26.69;32.04
13767;BME280;47980;48.794;9.176;2023-05-29T12:27:14;98335.66;;;26.73;31.85
13767;BME280;47980;48.794;9.176;2023-05-29T12:29:46;98342.75;;;26.83;31.46
13767;BME280;47980;48.794;9.176;2023-05-29T12:32:19;98344.41;;;26.81;31.85
13767;BME280;47980;48.794;9.176;2023-05-29T12:34:50;98346.22;;;26.55;31.93
13767;BME280;47980;48.794;9.176;2023-05-29T12:37:22;98346.19;;;26.71;31.15
13767;BME280;47980;48.794;9.176;2023-05-29T12:40:10;98345.22;;;26.12;32.06
13767;BME280;47980;48.794;9.176;2023-05-29T12:42:43;98345.13;;;26.16;31.20
13767;BME280;47980;48.794;9.176;2023-05-29T12:45:17;98344.84;;;26.63;31.69
13767;BME280;47980;48.794;9.176;2023-05-29T12:47:52;98341.75;;;26.61;31.06
13767;BME280;47980;48.794;9.176;2023-05-29T12:50:26;98342.97;;;26.60;31.60
13767;BME280;47980;48.794;9.176;2023-05-29T12:53:00;98340.84;;;26.68;31.32
13767;BME280;47980;48.794;9.176;2023-05-29T12:55:33;98340.25;;;26.60;29.77
13767;BME280;47980;48.794;9.176;2023-05-29T12:58:09;98345.91;;;26.82;28.44
13767;BME280;47980;48.794;9.176;2023-05-29T13:00:42;98354.84;;;26.33;28.57
13767;BME280;47980;48.794;9.176;2023-05-29T13:03:14;98362.34;;;26.29;29.99
13767;BME280;47980;48.794;9.176;2023-05-29T13:05:45;98358.72;;;26.16;30.50
13767;BME280;47980;48.794;9.176;2023-05-29T13:08:18;98356.25;;;26.05;29.90
13767;BME280;47980;48.794;9.176;2023-05-29T13:10:50;98345.66;;;26.11;30.52
13767;BME280;47980;48.794;9.176;2023-05-29T13:13:23;98342.66;;;26.05;29.64
13767;BME280;47980;48.794;9.176;2023-05-29T13:15:54;98333.78;;;26.70;29.89
13767;BME280;47980;48.794;9.176;2023-05-29T13:18:26;98335.97;;;26.26;30.15
13767;BME280;47980;48.794;9.176;2023-05-29T13:20:59;98335.78;;;26.17;31.16
13767;BME280;47980;48.794;9.176;2023-05-29T13:23:30;98325.06;;;26.42;30.56
13767;BME280;47980;48.794;9.176;2023-05-29T13:26:03;98328.72;;;26.85;30.73
13767;BME280;47980;48.794;9.176;2023-05-29T13:28:36;98325.25;;;26.68;29.80
13767;BME280;47980;48.794;9.176;2023-05-29T13:31:08;98326.28;;;26.74;31.06